Time;durP1;ratioP1;P1;durP2;ratioP2;P2;SDS_P1;SDS_P2;PMS_P1;PMS_P2;Temp;Humidity;BMP_temperature;BMP_pressure;BME280_temperature;BME280_humidity;BME280_pressure;Samples;Min_cycle;Max_cycle;Signal;HPM_P1;HPM_P2
2022/03/24 05:02:24;;;;;;;24.20;13.30;;;-0.60;99.90;;;;;;5036357;22;91318;-77
2022/03/24 05:04:50;;;;;;;20.33;12.40;;;-0.70;99.90;;;;;;4958301;28;92510;-76
2022/03/24 05:07:16;;;;;;;22.95;12.68;;;-0.70;99.90;;;;;;4959312;28;90660;-76
2022/03/24 05:09:41;;;;;;;32.80;13.38;;;-0.80;99.90;;;;;;4959490;28;90043;-76
2022/03/24 05:12:07;;;;;;;26.83;14.82;;;-0.80;99.90;;;;;;4957706;28;92684;-76
2022/03/24 05:14:33;;;;;;;23.02;13.80;;;-0.90;99.90;;;;;;4973188;22;91485;-81
2022/03/24 05:17:00;;;;;;;24.33;12.60;;;-0.90;99.90;;;;;;4940909;28;89477;-81
2022/03/24 05:19:26;;;;;;;22.40;13.07;;;-0.90;99.90;;;;;;4939980;28;92599;-81
2022/03/24 05:21:52;;;;;;;24.48;13.63;;;-0.90;99.90;;;;;;4939746;28;91718;-81
2022/03/24 05:24:17;;;;;;;22.70;13.65;;;-0.90;99.90;;;;;;4940013;28;92710;-82
2022/03/24 05:26:43;;;;;;;24.92;13.60;;;-0.90;99.90;;;;;;4939276;28;89302;-81
2022/03/24 05:29:09;;;;;;;25.10;14.45;;;-0.90;99.90;;;;;;4941412;28;89306;-82
2022/03/24 05:31:35;;;;;;;27.42;13.60;;;-0.80;99.90;;;;;;4939373;28;92534;-81
2022/03/24 05:34:01;;;;;;;23.13;13.60;;;-0.70;99.90;;;;;;4940000;28;92392;-82
2022/03/24 05:36:27;;;;;;;24.70;14.10;;;-0.60;99.90;;;;;;4939368;28;89271;-80
2022/03/24 05:38:52;;;;;;;23.10;13.73;;;-0.60;99.90;;;;;;4941335;28;89809;-81
2022/03/24 05:41:18;;;;;;;25.80;13.90;;;-0.50;99.90;;;;;;4941423;28;89191;-82
2022/03/24 05:44:02;;;;;;;24.77;14.15;;;-0.50;99.90;;;;;;4941483;28;89848;-82
2022/03/24 05:46:32;;;;;;;26.00;14.15;;;-0.50;99.90;;;;;;4939664;28;89287;-82
2022/03/24 05:48:58;;;;;;;24.88;14.68;;;-0.50;99.90;;;;;;4940153;28;91928;-81
2022/03/24 05:51:24;;;;;;;25.85;14.05;;;-0.50;99.90;;;;;;4939802;28;92638;-82
2022/03/24 05:53:50;;;;;;;22.75;14.10;;;-0.40;99.90;;;;;;4940474;28;93436;-81
2022/03/24 05:56:16;;;;;;;26.98;13.48;;;-0.40;99.90;;;;;;4941187;28;90254;-82
2022/03/24 05:58:42;;;;;;;23.23;14.57;;;-0.30;99.90;;;;;;4940295;28;92723;-81
2022/03/24 06:01:09;;;;;;;25.35;15.10;;;-0.20;99.90;;;;;;4940681;28;92261;-82
2022/03/24 06:03:36;;;;;;;26.17;15.05;;;-0.10;99.90;;;;;;4941445;28;91241;-81
2022/03/24 06:06:06;;;;;;;27.13;15.73;;;-0.10;99.90;;;;;;4944764;28;89204;-82
2022/03/24 06:08:33;;;;;;;25.20;15.43;;;0.00;99.90;;;;;;4939036;28;92791;-82
2022/03/24 06:11:00;;;;;;;26.55;15.80;;;0.10;99.90;;;;;;4940468;28;90383;-82
2022/03/24 06:13:26;;;;;;;22.65;14.52;;;0.20;99.90;;;;;;4940843;28;89855;-83
2022/03/24 06:15:51;;;;;;;26.55;14.63;;;0.20;99.90;;;;;;4939814;28;89385;-81
2022/03/24 06:18:17;;;;;;;25.40;14.57;;;0.30;99.90;;;;;;4940953;28;91270;-82
2022/03/24 06:20:43;;;;;;;27.95;14.25;;;0.40;99.90;;;;;;4941742;28;92344;-82
2022/03/24 06:23:09;;;;;;;27.05;14.65;;;0.50;99.90;;;;;;4938681;28;89896;-82
2022/03/24 06:25:37;;;;;;;25.67;15.63;;;0.60;99.90;;;;;;4938863;28;89427;-82
2022/03/24 06:28:04;;;;;;;26.45;15.13;;;0.80;99.90;;;;;;4938618;28;92773;-82
2022/03/24 06:30:30;;;;;;;29.77;15.60;;;0.90;99.90;;;;;;4938268;28;92522;-81
2022/03/24 06:32:56;;;;;;;29.48;15.57;;;1.00;99.90;;;;;;4938708;28;92988;-82
2022/03/24 06:35:22;;;;;;;26.42;15.18;;;1.10;99.90;;;;;;4940289;28;89390;-81
2022/03/24 06:37:48;;;;;;;28.27;16.30;;;1.20;99.90;;;;;;4938909;28;93080;-80
2022/03/24 06:40:14;;;;;;;22.90;14.13;;;1.30;99.90;;;;;;4940085;28;90423;-81
2022/03/24 06:42:41;;;;;;;25.33;14.70;;;1.30;99.90;;;;;;4933117;28;90992;-80
2022/03/24 06:45:10;;;;;;;25.23;15.27;;;1.40;99.90;;;;;;4937372;28;90484;-82
2022/03/24 06:47:36;;;;;;;31.45;14.93;;;1.50;99.90;;;;;;4939628;28;89860;-80
2022/03/24 06:50:02;;;;;;;30.83;15.52;;;1.50;99.90;;;;;;4938887;28;91612;-80
2022/03/24 06:52:28;;;;;;;25.65;15.05;;;1.60;99.90;;;;;;4938657;28;92343;-81
2022/03/24 06:54:54;;;;;;;26.20;14.65;;;1.70;99.90;;;;;;4940928;28;89290;-80
2022/03/24 06:57:20;;;;;;;22.67;14.48;;;1.80;99.90;;;;;;4936805;28;92436;-79
2022/03/24 06:59:45;;;;;;;24.38;14.73;;;1.90;99.90;;;;;;4936869;28;92970;-78
2022/03/24 07:02:11;;;;;;;25.92;14.73;;;2.00;99.90;;;;;;4937880;28;92691;-78
2022/03/24 07:04:36;;;;;;;25.65;14.80;;;2.10;99.90;;;;;;4936504;28;89272;-75
2022/03/24 07:07:04;;;;;;;24.67;14.63;;;2.20;99.90;;;;;;4938406;28;89305;-78
2022/03/24 07:09:30;;;;;;;22.67;14.07;;;2.40;99.90;;;;;;4938126;28;90386;-74
2022/03/24 07:11:56;;;;;;;22.63;14.38;;;2.50;99.90;;;;;;4938008;28;91834;-76
2022/03/24 07:14:22;;;;;;;23.40;14.20;;;2.70;99.90;;;;;;4938273;28;89222;-76
2022/03/24 07:16:48;;;;;;;24.17;14.55;;;2.90;99.90;;;;;;4937022;28;92652;-75
2022/03/24 07:19:14;;;;;;;25.20;14.00;;;3.00;99.90;;;;;;4938060;28;89162;-75
2022/03/24 07:21:40;;;;;;;26.98;14.73;;;3.20;99.90;;;;;;4937426;28;90042;-75
2022/03/24 07:24:09;;;;;;;25.25;14.48;;;3.30;99.90;;;;;;4938010;28;89207;-78
2022/03/24 07:26:38;;;;;;;23.85;13.88;;;3.50;99.90;;;;;;4936974;28;93180;-78
2022/03/24 07:29:04;;;;;;;26.20;15.18;;;3.70;99.90;;;;;;4939478;28;91813;-80
2022/03/24 07:31:31;;;;;;;29.67;14.45;;;3.80;99.90;;;;;;4940223;28;91450;-80
2022/03/24 07:33:57;;;;;;;23.80;15.55;;;4.00;99.90;;;;;;4944300;28;90385;-78
2022/03/24 07:36:23;;;;;;;28.25;15.07;;;4.20;99.90;;;;;;4946213;28;90694;-79
2022/03/24 07:38:51;;;;;;;25.63;15.38;;;4.40;99.90;;;;;;4940850;28;92290;-78
2022/03/24 07:41:17;;;;;;;26.00;15.25;;;4.50;99.90;;;;;;4939602;28;90946;-78
2022/03/24 07:43:42;;;;;;;24.92;14.93;;;4.70;99.90;;;;;;4941982;28;89394;-77
2022/03/24 07:46:08;;;;;;;24.45;14.75;;;4.90;99.90;;;;;;4939505;28;92487;-76
2022/03/24 07:48:34;;;;;;;24.13;14.27;;;5.00;99.90;;;;;;4941258;28;89852;-76
2022/03/24 07:51:00;;;;;;;22.73;14.52;;;5.10;99.90;;;;;;4939363;28;91781;-76
2022/03/24 07:53:28;;;;;;;21.95;14.60;;;5.30;99.90;;;;;;4941199;28;89510;-77
2022/03/24 07:55:56;;;;;;;23.98;14.38;;;5.40;99.90;;;;;;4938214;28;92674;-76
2022/03/24 07:58:25;;;;;;;25.55;15.10;;;5.60;99.90;;;;;;4938174;28;93687;-77
2022/03/24 08:00:51;;;;;;;28.27;15.25;;;5.80;99.90;;;;;;4940238;28;91561;-77
2022/03/24 08:03:19;;;;;;;25.83;15.35;;;6.00;98.70;;;;;;4938691;28;89220;-76
2022/03/24 08:05:46;;;;;;;25.60;14.70;;;6.10;98.20;;;;;;4938072;28;91613;-77
2022/03/24 08:08:12;;;;;;;26.50;15.98;;;6.30;98.30;;;;;;4940318;28;89468;-77
2022/03/24 08:10:42;;;;;;;28.17;15.45;;;6.50;98.20;;;;;;4941162;28;89238;-76
2022/03/24 08:13:13;;;;;;;26.05;14.95;;;6.60;98.30;;;;;;4940219;28;89239;-76
2022/03/24 08:15:43;;;;;;;27.15;15.15;;;6.70;97.40;;;;;;4940830;28;90175;-77
2022/03/24 08:18:10;;;;;;;26.40;14.98;;;6.80;97.60;;;;;;4939960;28;91681;-75
2022/03/24 08:20:40;;;;;;;24.90;16.05;;;7.00;97.30;;;;;;4940211;28;89957;-75
2022/03/24 08:23:08;;;;;;;24.52;17.02;;;7.20;96.90;;;;;;4938273;28;90255;-75
2022/03/24 08:25:35;;;;;;;30.92;16.83;;;7.40;96.80;;;;;;4939792;28;91271;-75
2022/03/24 08:28:00;;;;;;;26.05;16.02;;;7.70;95.10;;;;;;4938898;28;89279;-75
2022/03/24 08:30:27;;;;;;;26.33;16.63;;;7.90;94.80;;;;;;4938144;28;90652;-75
2022/03/24 08:32:55;;;;;;;27.05;16.70;;;8.10;93.40;;;;;;4938543;28;89199;-75
2022/03/24 08:35:21;;;;;;;24.08;16.17;;;8.30;93.00;;;;;;4943048;28;90269;-75
2022/03/24 08:37:47;;;;;;;25.80;16.50;;;8.40;93.00;;;;;;4940752;28;93020;-76
2022/03/24 08:40:13;;;;;;;26.92;16.95;;;8.60;92.40;;;;;;4938292;28;94014;-76
2022/03/24 08:42:41;;;;;;;27.70;16.95;;;8.80;91.40;;;;;;4939339;28;89346;-77
2022/03/24 08:45:09;;;;;;;29.27;17.10;;;9.00;91.30;;;;;;4938301;28;92517;-80
2022/03/24 08:47:35;;;;;;;30.88;16.88;;;9.10;91.40;;;;;;4940169;28;91015;-77
2022/03/24 08:50:02;;;;;;;26.08;16.42;;;9.20;91.50;;;;;;4939896;28;92861;-77
2022/03/24 08:52:28;;;;;;;26.70;16.92;;;9.40;90.40;;;;;;4941476;28;89274;-77
2022/03/24 08:54:54;;;;;;;28.73;17.42;;;9.50;90.90;;;;;;4940623;28;89339;-77
2022/03/24 08:57:27;;;;;;;28.23;16.42;;;9.80;90.20;;;;;;4936952;28;90379;-80
2022/03/24 09:00:00;;;;;;;22.90;15.50;;;9.90;89.40;;;;;;4941839;28;90510;-80
2022/03/24 09:02:26;;;;;;;26.25;15.65;;;10.10;88.10;;;;;;4937860;28;89556;-79
2022/03/24 09:04:52;;;;;;;24.85;15.63;;;10.30;83.40;;;;;;4939662;28;90214;-80
2022/03/24 09:07:18;;;;;;;24.67;15.07;;;10.40;83.30;;;;;;4937395;28;92466;-80
2022/03/24 09:09:43;;;;;;;23.60;15.68;;;10.50;83.20;;;;;;4943034;28;92819;-82
2022/03/24 09:12:10;;;;;;;23.33;15.93;;;10.50;82.20;;;;;;4948024;28;90143;-79
2022/03/24 09:14:40;;;;;;;25.75;15.52;;;10.60;83.40;;;;;;4938486;28;92904;-80
2022/03/24 09:17:08;;;;;;;23.35;15.07;;;10.80;79.60;;;;;;4940667;28;90090;-81
2022/03/24 09:19:34;;;;;;;27.25;15.43;;;11.00;78.60;;;;;;4941363;28;91636;-78
2022/03/24 09:22:00;;;;;;;23.48;15.73;;;11.30;77.90;;;;;;4939926;28;89333;-79
2022/03/24 09:24:27;;;;;;;25.02;15.65;;;11.40;78.80;;;;;;4939069;28;89569;-79
2022/03/24 09:26:53;;;;;;;24.95;16.88;;;11.60;77.10;;;;;;4939141;28;89918;-79
2022/03/24 09:29:19;;;;;;;23.95;15.70;;;11.70;77.10;;;;;;4940314;28;89414;-80
2022/03/24 09:31:45;;;;;;;29.33;16.13;;;11.80;75.90;;;;;;4938317;28;89400;-80
2022/03/24 09:34:11;;;;;;;23.70;16.23;;;11.90;76.60;;;;;;4937899;28;92062;-79
2022/03/24 09:36:36;;;;;;;23.60;15.85;;;12.10;75.30;;;;;;4937217;28;92378;-79
2022/03/24 09:39:05;;;;;;;25.50;17.13;;;12.30;75.30;;;;;;4939453;28;91247;-79
2022/03/24 09:41:31;;;;;;;23.60;16.20;;;12.50;74.10;;;;;;4938015;28;89497;-79
2022/03/24 09:43:58;;;;;;;23.63;15.80;;;12.70;73.90;;;;;;4937020;28;92827;-79
2022/03/24 09:46:27;;;;;;;25.40;16.05;;;12.80;73.30;;;;;;4936437;28;93475;-79
2022/03/24 09:48:53;;;;;;;20.58;15.38;;;12.80;72.90;;;;;;4939210;28;92948;-82
2022/03/24 09:51:20;;;;;;;24.50;15.65;;;13.00;70.70;;;;;;4938874;28;89036;-79
2022/03/24 09:53:46;;;;;;;22.15;15.30;;;13.00;74.20;;;;;;4936907;28;91488;-79
2022/03/24 09:56:12;;;;;;;24.52;16.42;;;13.20;71.80;;;;;;4938162;28;91949;-79
2022/03/24 09:58:37;;;;;;;23.63;15.57;;;13.30;70.50;;;;;;4937397;28;92584;-79
2022/03/24 10:01:03;;;;;;;22.75;15.45;;;13.30;70.90;;;;;;4936344;28;90442;-79
2022/03/24 10:03:29;;;;;;;23.67;15.38;;;13.40;69.70;;;;;;4936187;28;92983;-78
2022/03/24 10:06:06;;;;;;;22.73;15.20;;;13.50;69.40;;;;;;4935899;28;92216;-80
2022/03/24 10:08:34;;;;;;;24.75;15.60;;;13.60;68.60;;;;;;4937103;28;92627;-78
2022/03/24 10:11:08;;;;;;;26.05;16.17;;;13.80;68.00;;;;;;4937707;28;89163;-77
2022/03/24 10:13:53;;;;;;;21.08;15.20;;;14.10;69.10;;;;;;4925040;28;93106;-79
2022/03/24 10:16:34;;;;;;;22.90;14.57;;;14.20;66.90;;;;;;4921518;28;90266;-79
2022/03/24 10:19:01;;;;;;;23.42;15.75;;;14.40;66.60;;;;;;4937301;28;92677;-78
2022/03/24 10:21:31;;;;;;;26.17;16.70;;;14.50;65.70;;;;;;4940424;28;89204;-81
2022/03/24 10:24:09;;;;;;;24.42;16.08;;;14.60;64.40;;;;;;4935863;28;91885;-79
2022/03/24 10:26:59;;;;;;;21.55;15.20;;;14.60;66.70;;;;;;4916283;28;93101;-77
2022/03/24 10:29:25;;;;;;;25.23;16.65;;;14.70;65.70;;;;;;4933328;28;93662;-76
2022/03/24 10:31:56;;;;;;;25.02;16.33;;;14.90;68.20;;;;;;4935623;28;89554;-76
2022/03/24 10:34:41;;;;;;;25.85;16.08;;;15.10;63.40;;;;;;4936007;28;92074;-76
2022/03/24 10:37:12;;;;;;;25.65;15.85;;;15.20;62.60;;;;;;4937584;28;89188;-76
2022/03/24 10:39:40;;;;;;;25.85;15.52;;;15.40;65.70;;;;;;4937149;28;90077;-77
2022/03/24 10:42:14;;;;;;;23.92;16.45;;;15.60;65.10;;;;;;4937017;28;89414;-78
2022/03/24 10:45:01;;;;;;;27.23;15.73;;;15.70;62.70;;;;;;4937250;28;89056;-77
2022/03/24 10:47:55;;;;;;;23.40;15.35;;;15.80;63.30;;;;;;4936934;28;90080;-79
2022/03/24 10:50:31;;;;;;;26.55;16.05;;;16.10;61.40;;;;;;4937432;28;90295;-78
2022/03/24 10:53:00;;;;;;;25.63;15.90;;;16.20;60.90;;;;;;4937001;28;90717;-78
2022/03/24 10:55:35;;;;;;;31.67;16.92;;;16.30;61.30;;;;;;4936015;28;92254;-76
2022/03/24 10:58:04;;;;;;;28.92;17.17;;;16.20;64.10;;;;;;4937314;28;90248;-78
2022/03/24 11:00:31;;;;;;;27.60;16.63;;;16.30;62.40;;;;;;4937770;28;90150;-73
2022/03/24 11:02:57;;;;;;;27.08;16.35;;;16.20;61.30;;;;;;4936496;28;89797;-75
2022/03/24 11:05:23;;;;;;;24.15;17.10;;;16.30;62.50;;;;;;4936814;28;91479;-73
2022/03/24 11:07:53;;;;;;;23.17;16.23;;;16.20;61.30;;;;;;4936999;28;89282;-76
2022/03/24 11:10:20;;;;;;;23.85;16.33;;;16.40;60.00;;;;;;4938161;28;89389;-75
2022/03/24 11:12:49;;;;;;;26.67;17.13;;;16.60;61.90;;;;;;4938328;28;89242;-73
2022/03/24 11:15:16;;;;;;;22.77;16.85;;;16.70;58.80;;;;;;4954735;22;95621;-78
2022/03/24 11:17:42;;;;;;;27.55;17.25;;;16.80;58.60;;;;;;4938870;28;90735;-75
2022/03/24 11:20:13;;;;;;;26.63;16.77;;;16.90;59.40;;;;;;4948100;28;91117;-75
2022/03/24 11:23:00;;;;;;;28.83;17.48;;;17.00;57.80;;;;;;4940366;28;89286;-76
2022/03/24 11:25:28;;;;;;;24.55;16.88;;;17.00;58.80;;;;;;4938007;28;89962;-76
2022/03/24 11:27:55;;;;;;;23.88;16.35;;;17.30;56.90;;;;;;4943346;28;89184;-77
2022/03/24 11:30:22;;;;;;;26.90;17.75;;;17.50;58.00;;;;;;4934645;28;91814;-77
2022/03/24 11:32:50;;;;;;;23.52;17.00;;;17.70;57.60;;;;;;4942096;28;89934;-76
2022/03/24 11:35:16;;;;;;;25.45;16.70;;;17.70;57.60;;;;;;4921910;28;89649;-74
2022/03/24 11:37:43;;;;;;;27.38;17.60;;;17.60;57.70;;;;;;4971868;28;91805;-75
2022/03/24 11:40:17;;;;;;;24.65;17.33;;;17.70;57.40;;;;;;4973913;28;90852;-77
2022/03/24 11:43:16;;;;;;;28.75;17.70;;;17.70;56.40;;;;;;4951042;28;90213;-74
2022/03/24 11:46:02;;;;;;;26.65;18.15;;;17.90;57.50;;;;;;4924604;28;89357;-74
2022/03/24 11:48:46;;;;;;;22.70;17.33;;;18.10;56.20;;;;;;4937816;28;89245;-74
2022/03/24 11:51:14;;;;;;;24.45;17.20;;;18.20;54.30;;;;;;4947749;28;89499;-74
2022/03/24 11:53:40;;;;;;;24.80;17.30;;;18.10;54.20;;;;;;4955021;28;89346;-74
2022/03/24 11:56:06;;;;;;;24.35;17.25;;;18.10;55.50;;;;;;4955663;28;89237;-73
2022/03/24 11:58:41;;;;;;;25.98;17.35;;;18.30;54.60;;;;;;4956315;28;89226;-74
2022/03/24 12:01:19;;;;;;;26.35;17.60;;;18.30;53.70;;;;;;4954762;28;89304;-74
2022/03/24 12:03:49;;;;;;;24.88;17.40;;;18.50;52.40;;;;;;4937424;28;89261;-73
2022/03/24 12:06:16;;;;;;;26.48;17.25;;;18.50;52.20;;;;;;4935256;28;92711;-73
2022/03/24 12:09:03;;;;;;;26.92;17.02;;;18.60;52.80;;;;;;4936718;28;90184;-74
2022/03/24 12:11:31;;;;;;;24.60;17.40;;;18.60;50.70;;;;;;4937093;28;91083;-74
2022/03/24 12:14:16;;;;;;;23.83;16.60;;;19.00;52.40;;;;;;4935746;28;89332;-74
2022/03/24 12:16:45;;;;;;;25.52;16.52;;;19.30;51.10;;;;;;4941007;28;89317;-74
2022/03/24 12:19:36;;;;;;;28.20;17.20;;;19.40;49.00;;;;;;4939007;28;91661;-74
2022/03/24 12:22:25;;;;;;;26.27;17.48;;;19.50;50.10;;;;;;4932298;28;89307;-73
2022/03/24 12:25:10;;;;;;;26.75;16.92;;;19.50;48.90;;;;;;4930907;28;89459;-75
2022/03/24 12:28:01;;;;;;;26.50;16.40;;;19.50;50.60;;;;;;4940303;28;89879;-76
2022/03/24 12:30:27;;;;;;;27.75;16.50;;;19.40;48.40;;;;;;4941285;28;91609;-75
2022/03/24 12:33:07;;;;;;;27.90;18.52;;;19.40;48.40;;;;;;4940210;28;90205;-75
2022/03/24 12:35:49;;;;;;;24.50;17.25;;;19.50;49.60;;;;;;4920291;28;90147;-74
2022/03/24 12:38:27;;;;;;;22.80;16.52;;;19.80;49.40;;;;;;4920873;28;90186;-73
2022/03/24 12:41:05;;;;;;;24.05;15.52;;;19.90;46.20;;;;;;4920902;28;89842;-74
2022/03/24 12:43:47;;;;;;;20.73;15.85;;;19.80;49.50;;;;;;4934196;28;90116;-73
2022/03/24 12:46:21;;;;;;;28.27;16.83;;;20.20;47.30;;;;;;4947595;28;90867;-72
2022/03/24 12:48:47;;;;;;;22.23;16.15;;;20.30;46.40;;;;;;4938364;28;89802;-73
2022/03/24 12:51:22;;;;;;;24.77;16.35;;;20.30;46.30;;;;;;4939347;28;90106;-73
2022/03/24 12:53:54;;;;;;;22.02;14.85;;;20.50;44.20;;;;;;4933947;28;91601;-73
2022/03/24 12:56:22;;;;;;;23.98;15.68;;;20.50;45.90;;;;;;4935732;28;89340;-73
2022/03/24 12:58:52;;;;;;;25.48;16.33;;;20.70;46.40;;;;;;4938904;28;89888;-73
2022/03/24 13:01:18;;;;;;;19.45;14.65;;;20.90;45.10;;;;;;4941828;28;90958;-73
2022/03/24 13:03:44;;;;;;;24.90;15.75;;;20.80;45.00;;;;;;4959269;28;90871;-73
2022/03/24 13:06:10;;;;;;;20.38;15.32;;;20.90;47.00;;;;;;4958203;28;89420;-73
2022/03/24 13:08:35;;;;;;;22.17;15.25;;;21.00;43.80;;;;;;4959097;28;89304;-74
2022/03/24 13:11:04;;;;;;;21.13;14.45;;;21.10;44.60;;;;;;4958489;28;91545;-72
2022/03/24 13:13:29;;;;;;;20.08;14.73;;;21.20;44.00;;;;;;4956823;28;91749;-73
2022/03/24 13:15:58;;;;;;;19.33;15.10;;;21.50;43.20;;;;;;4950239;28;90267;-73
2022/03/24 13:18:24;;;;;;;20.58;14.70;;;21.50;42.30;;;;;;4939553;28;89854;-72
2022/03/24 13:20:51;;;;;;;19.65;14.25;;;21.60;44.30;;;;;;4937314;28;92977;-73
2022/03/24 13:23:23;;;;;;;18.20;13.45;;;21.70;40.50;;;;;;4938911;28;89837;-73
2022/03/24 13:25:53;;;;;;;20.45;14.05;;;21.60;43.90;;;;;;4932841;28;90770;-73
2022/03/24 13:28:24;;;;;;;19.60;14.05;;;21.60;41.20;;;;;;4919929;28;90299;-73
2022/03/24 13:30:53;;;;;;;18.08;13.63;;;21.30;41.90;;;;;;4950283;28;89955;-73
2022/03/24 13:33:20;;;;;;;16.30;12.75;;;21.50;40.40;;;;;;4958682;28;89562;-73
2022/03/24 13:35:48;;;;;;;16.33;12.88;;;21.60;39.10;;;;;;4957675;28;89795;-73
2022/03/24 13:38:20;;;;;;;19.02;12.63;;;21.80;39.70;;;;;;4958134;28;89614;-72
2022/03/24 13:40:53;;;;;;;18.65;13.02;;;21.80;40.10;;;;;;4958149;28;89903;-73
2022/03/24 13:43:21;;;;;;;16.20;12.65;;;21.80;44.00;;;;;;4956789;28;89661;-73
2022/03/24 13:45:48;;;;;;;15.48;10.95;;;22.00;40.90;;;;;;4936356;28;89369;-74
2022/03/24 13:48:17;;;;;;;15.40;11.50;;;22.10;40.70;;;;;;4937224;28;89828;-73
2022/03/24 13:50:45;;;;;;;15.55;11.70;;;22.10;38.50;;;;;;4938476;28;90869;-75
2022/03/24 13:53:13;;;;;;;16.33;11.77;;;21.80;36.50;;;;;;4934383;28;93634;-74
2022/03/24 13:55:40;;;;;;;14.77;11.38;;;21.80;38.40;;;;;;4937874;28;89587;-75
2022/03/24 13:58:11;;;;;;;15.52;10.93;;;21.70;38.90;;;;;;4936704;28;91773;-76
2022/03/24 14:00:38;;;;;;;14.82;11.30;;;21.80;41.10;;;;;;4935221;28;90177;-74
2022/03/24 14:03:17;;;;;;;13.13;10.63;;;22.00;39.90;;;;;;4936815;28;91522;-75
2022/03/24 14:06:03;;;;;;;14.60;11.25;;;22.00;39.70;;;;;;4931458;28;90100;-75
2022/03/24 14:08:36;;;;;;;16.85;11.15;;;22.40;38.60;;;;;;4920885;28;90138;-75
2022/03/24 14:11:09;;;;;;;13.95;10.75;;;22.40;38.80;;;;;;4938976;28;90597;-75
2022/03/24 14:13:36;;;;;;;15.43;11.52;;;22.30;40.40;;;;;;4936167;28;92192;-75
2022/03/24 14:16:16;;;;;;;15.68;11.73;;;22.20;37.50;;;;;;4936108;28;90335;-75
2022/03/24 14:19:04;;;;;;;14.20;11.30;;;22.40;37.50;;;;;;4937915;28;89352;-75
2022/03/24 14:21:44;;;;;;;12.50;10.95;;;23.40;35.40;;;;;;4936025;28;91171;-75
2022/03/24 14:24:45;;;;;;;13.52;11.48;;;23.80;34.10;;;;;;4952601;28;91187;-75
2022/03/24 14:27:19;;;;;;;16.33;11.52;;;24.90;36.50;;;;;;4939218;28;89282;-75
2022/03/24 14:30:08;;;;;;;13.18;10.68;;;25.70;33.60;;;;;;4938005;28;89645;-75
2022/03/24 14:32:38;;;;;;;14.82;12.00;;;26.70;33.10;;;;;;4937797;28;90184;-75
2022/03/24 14:35:06;;;;;;;15.65;12.07;;;27.00;31.40;;;;;;4937806;28;90072;-73
2022/03/24 14:37:51;;;;;;;18.08;13.35;;;26.80;33.00;;;;;;4936064;28;89206;-73
2022/03/24 14:40:31;;;;;;;15.48;12.35;;;26.70;32.00;;;;;;4947339;28;90304;-73
2022/03/24 14:42:58;;;;;;;13.65;11.65;;;27.40;31.50;;;;;;4956529;28;91398;-73
2022/03/24 14:45:24;;;;;;;16.33;12.82;;;28.00;32.50;;;;;;4956465;28;90980;-74
2022/03/24 14:47:50;;;;;;;15.18;12.27;;;29.30;30.30;;;;;;4956027;28;89308;-74
2022/03/24 14:50:15;;;;;;;16.92;11.98;;;30.20;29.00;;;;;;4956836;28;90016;-74
2022/03/24 14:52:41;;;;;;;14.85;12.35;;;29.50;29.20;;;;;;4956957;28;89248;-74
2022/03/24 14:55:07;;;;;;;17.92;12.77;;;29.40;29.80;;;;;;4940040;28;89331;-74
2022/03/24 14:57:36;;;;;;;16.73;13.45;;;29.40;29.50;;;;;;4936434;28;89281;-75
2022/03/24 15:00:03;;;;;;;13.27;11.88;;;29.50;30.00;;;;;;4947692;28;88832;-74
2022/03/24 15:02:29;;;;;;;14.45;12.75;;;29.50;28.30;;;;;;4952108;28;91091;-74
2022/03/24 15:04:55;;;;;;;12.95;11.40;;;29.40;29.00;;;;;;4942420;28;89288;-74
2022/03/24 15:07:20;;;;;;;15.50;12.27;;;29.40;31.00;;;;;;4937303;28;90198;-73
2022/03/24 15:09:46;;;;;;;16.90;12.13;;;28.80;28.50;;;;;;4955597;28;92569;-74
2022/03/24 15:12:12;;;;;;;13.57;12.15;;;29.60;29.80;;;;;;4956648;28;89389;-74
2022/03/24 15:17:22;;;;;;;13.70;12.30;;;29.00;29.10;;;;;;4956092;28;89191;-74
2022/03/24 15:19:47;;;;;;;15.65;12.35;;;29.40;28.50;;;;;;4955434;28;92539;-75
2022/03/24 15:22:13;;;;;;;15.73;13.50;;;29.00;31.90;;;;;;4946914;28;92981;-74
2022/03/24 15:24:39;;;;;;;14.38;12.18;;;28.90;28.60;;;;;;4935955;28;91123;-74
2022/03/24 15:27:05;;;;;;;12.27;10.98;;;29.90;28.80;;;;;;4936441;28;89589;-75
2022/03/24 15:29:30;;;;;;;17.30;13.48;;;30.10;28.50;;;;;;4937301;28;89335;-74
2022/03/24 15:31:59;;;;;;;15.48;13.88;;;30.60;27.90;;;;;;4937148;28;90948;-74
2022/03/24 15:34:28;;;;;;;18.08;13.90;;;30.00;28.30;;;;;;4938683;28;90508;-75
2022/03/24 15:36:55;;;;;;;18.58;14.13;;;29.60;28.50;;;;;;4935632;28;89286;-75
2022/03/24 15:39:21;;;;;;;14.23;12.73;;;29.20;29.00;;;;;;4934292;28;89510;-76
2022/03/24 15:41:48;;;;;;;15.45;13.10;;;29.60;29.30;;;;;;4938512;28;89325;-76
2022/03/24 15:44:17;;;;;;;15.27;13.18;;;30.10;28.50;;;;;;4938177;28;89382;-75
2022/03/24 15:46:43;;;;;;;15.77;12.20;;;30.10;28.60;;;;;;4920677;28;89310;-75
2022/03/24 15:49:09;;;;;;;16.58;13.25;;;30.10;28.90;;;;;;4935748;28;89193;-76
2022/03/24 15:51:34;;;;;;;19.10;12.73;;;29.90;28.90;;;;;;4941220;28;89468;-75
2022/03/24 15:54:01;;;;;;;13.45;12.02;;;30.40;27.50;;;;;;4937223;28;91359;-76
2022/03/24 15:56:26;;;;;;;16.73;13.10;;;30.50;28.80;;;;;;4938329;28;90276;-75
2022/03/24 15:58:52;;;;;;;14.00;12.60;;;30.20;28.80;;;;;;4940703;28;89274;-76
2022/03/24 16:01:17;;;;;;;15.90;13.25;;;30.60;28.00;;;;;;4942846;28;89271;-75
2022/03/24 16:03:43;;;;;;;15.35;11.90;;;30.00;29.40;;;;;;4941562;28;89236;-75
2022/03/24 16:06:08;;;;;;;18.58;12.75;;;28.60;29.20;;;;;;4941038;28;89160;-75
2022/03/24 16:08:34;;;;;;;15.27;13.02;;;28.70;29.80;;;;;;4941205;28;89257;-75
2022/03/24 16:11:00;;;;;;;14.85;13.27;;;28.60;28.60;;;;;;4941628;28;89787;-75
2022/03/24 16:13:27;;;;;;;16.35;12.48;;;28.10;29.20;;;;;;4941770;28;91170;-75
2022/03/24 16:15:53;;;;;;;15.25;12.45;;;27.60;29.20;;;;;;4941172;28;89414;-75
2022/03/24 16:18:18;;;;;;;14.23;12.50;;;27.30;31.80;;;;;;4934910;28;93281;-75
2022/03/24 16:20:44;;;;;;;17.13;12.43;;;27.10;30.90;;;;;;4941014;28;90250;-75
2022/03/24 16:23:10;;;;;;;14.43;12.35;;;26.10;30.20;;;;;;4949213;28;90588;-75
2022/03/24 16:25:36;;;;;;;17.20;13.25;;;25.60;31.30;;;;;;4936755;28;89421;-75
2022/03/24 16:28:02;;;;;;;16.88;12.57;;;25.50;31.40;;;;;;4939479;28;93623;-75
2022/03/24 16:30:28;;;;;;;14.18;12.40;;;24.50;33.80;;;;;;4940869;28;89272;-75
2022/03/24 16:32:54;;;;;;;13.70;12.27;;;23.40;35.10;;;;;;4941605;28;89540;-75
2022/03/24 16:35:20;;;;;;;15.00;13.05;;;22.40;36.60;;;;;;4941214;28;89283;-75
2022/03/24 16:37:46;;;;;;;14.45;12.18;;;21.60;38.80;;;;;;4941383;28;89704;-74
2022/03/24 16:40:13;;;;;;;17.52;12.30;;;20.80;37.70;;;;;;4941926;28;89242;-75
2022/03/24 16:42:40;;;;;;;19.88;12.48;;;20.30;40.40;;;;;;4945429;28;89809;-75
2022/03/24 16:45:07;;;;;;;15.43;13.10;;;19.90;42.90;;;;;;4934431;28;90378;-74
2022/03/24 16:47:33;;;;;;;16.77;13.35;;;19.50;44.50;;;;;;4940763;28;89911;-74
2022/03/24 16:49:58;;;;;;;20.02;14.25;;;19.20;42.60;;;;;;4941159;28;91041;-75
2022/03/24 16:52:24;;;;;;;16.58;13.43;;;18.90;43.20;;;;;;4941169;28;90647;-74
2022/03/24 16:54:49;;;;;;;14.90;12.93;;;18.60;44.80;;;;;;4940409;28;89433;-78
2022/03/24 16:57:15;;;;;;;17.40;13.98;;;18.30;46.40;;;;;;4940920;28;90240;-82
2022/03/24 16:59:41;;;;;;;16.63;12.98;;;18.00;46.70;;;;;;4940372;28;91926;-75
2022/03/24 17:02:06;;;;;;;18.33;12.95;;;17.70;47.80;;;;;;4940845;28;92382;-75
2022/03/24 17:04:32;;;;;;;18.50;12.10;;;17.40;48.90;;;;;;4939798;28;89461;-76
2022/03/24 17:06:58;;;;;;;16.70;10.45;;;17.10;50.40;;;;;;4940332;28;90264;-77
2022/03/24 17:09:23;;;;;;;15.23;9.38;;;16.80;52.00;;;;;;4941111;28;91000;-75
2022/03/24 17:11:49;;;;;;;11.52;8.80;;;16.50;52.90;;;;;;4943131;28;89777;-77
2022/03/24 17:14:14;;;;;;;14.85;8.95;;;16.20;53.80;;;;;;4944301;28;89345;-83
2022/03/24 17:16:40;;;;;;;18.60;10.75;;;15.90;55.30;;;;;;4942116;28;91864;-76
2022/03/24 17:19:06;;;;;;;15.98;11.07;;;15.60;57.00;;;;;;4939780;28;92953;-74
2022/03/24 17:21:31;;;;;;;16.60;10.80;;;15.30;59.70;;;;;;4942335;28;89902;-75
2022/03/24 17:23:57;;;;;;;15.15;11.13;;;15.00;62.10;;;;;;4951033;28;89264;-76
2022/03/24 17:26:23;;;;;;;20.48;11.63;;;14.70;63.00;;;;;;4938423;28;89701;-76
2022/03/24 17:28:48;;;;;;;15.70;11.02;;;14.50;64.90;;;;;;4940079;28;89287;-76
2022/03/24 17:31:14;;;;;;;15.15;10.40;;;14.20;66.70;;;;;;4940243;28;89484;-76
2022/03/24 17:33:39;;;;;;;15.32;11.05;;;14.00;67.40;;;;;;4941287;28;90631;-82
2022/03/24 17:36:05;;;;;;;15.15;10.98;;;13.70;68.00;;;;;;4946549;28;93505;-76
2022/03/24 17:38:31;;;;;;;15.32;10.35;;;13.50;68.80;;;;;;4944044;28;89925;-76
2022/03/24 17:40:57;;;;;;;17.20;11.68;;;13.20;69.60;;;;;;4947358;28;93045;-76